Have a Safe July 4th! 

Flight Track Log - Related Links

Times and Time Zones

All times are in EDT time to prevent confusion due to time zone crossing. See the UAL4108 flight status page for this flight to view local times or setup timezone preferences in your user account.

Time Position Orientation Groundspeed Altitude Reporting Facility
EDT Latitude Longitude Course Direction KTS MPH feet Rate Location/Type
Fri 08:35:23 PM 34.7411 -92.2147 193° South 154 177 900  Level Memphis Center
Fri 08:35:47 PM 34.7456 -92.1944 75° East 164 189 1,800 2,188 Climbing Memphis Center
Fri 08:36:48 PM 34.7403 -92.1364 96° East 197 227 4,000 2,377 Climbing Memphis Center
Fri 08:37:33 PM 34.7006 -92.1331 176° South 200 230 6,000 2,514 Climbing Memphis Center
Fri 08:38:33 PM 34.6439 -92.1622 203° Southwest 212 244 8,400 2,300 Climbing Memphis Center
Fri 08:39:33 PM 34.5767 -92.1858 196° South 230 265 10,600 1,650 Climbing Memphis Center
Fri 08:40:00 PM 34.3438 -92.4928 193° South  Level Estimated
Fri 08:40:33 PM 34.4972 -92.2019 189° South 256 295 11,700  Level Memphis Center
Fri 08:41:33 PM 34.4031 -92.2200 189° South 306 352 13,200 1,650 Climbing Memphis Center
Fri 08:42:33 PM 34.3111 -92.2356 188° South 333 383 15,000 1,750 Climbing Memphis Center
Fri 08:43:33 PM 34.2147 -92.2561 190° South 347 399 16,700 1,500 Climbing Memphis Center
Fri 08:44:33 PM 34.1164 -92.2739 189° South 357 411 18,000 1,300 Climbing Memphis Center
Fri 08:45:33 PM 34.0306 -92.2972 193° South 357 411 19,300 1,483 Climbing Memphis Center
Fri 08:47:31 PM 33.8325 -92.3303 188° South 344 396 22,400 1,584 Climbing Fort Worth Center
Fri 08:48:31 PM 33.7311 -92.3511 190° South 363 418 24,000 1,700 Climbing Fort Worth Center
Fri 08:49:31 PM 33.6297 -92.3694 189° South 376 433 25,800 1,700 Climbing Fort Worth Center
Fri 08:50:31 PM 33.5261 -92.3878 188° South 376 433 27,400 1,100 Climbing Fort Worth Center
Fri 08:51:31 PM 33.4247 -92.4086 190° South 371 427 28,000 300 Climbing Fort Worth Center
Fri 08:52:31 PM 33.3128 -92.4275 188° South 384 442 28,000  Level Fort Worth Center
Fri 08:53:31 PM 33.1947 -92.4514 190° South 411 473 28,000  Level Fort Worth Center
Fri 08:54:31 PM 33.0764 -92.4703 188° South 425 489 28,000  Level Fort Worth Center
Fri 08:55:31 PM 32.9542 -92.4944 189° South 443 510 28,000  Level Fort Worth Center
Fri 08:57:13 PM 32.7478 -92.5397 190° South 449 517 28,000  Level Houston Center
Fri 08:58:15 PM 32.6214 -92.5572 187° South 454 522 28,000  Level Houston Center
Fri 08:59:16 PM 32.4911 -92.5817 189° South 457 526 28,000  Level Houston Center
Fri 09:00:18 PM 32.3408 -92.6089 189° South 452 520 28,000  Level Houston Center
Fri 09:01:19 PM 32.2158 -92.6325 189° South 452 520 28,000  Level Houston Center
Fri 09:02:21 PM 32.0917 -92.6575 190° South 453 521 28,000  Level Houston Center
Fri 09:03:22 PM 31.9689 -92.6861 191° South 450 518 28,000  Level Houston Center
Fri 09:04:24 PM 31.8750 -92.7725 218° Southwest 426 490 28,000  Level Houston Center
Fri 09:05:25 PM 31.7839 -92.8639 220° Southwest 428 493 28,000  Level Houston Center
Fri 09:06:27 PM 31.6911 -92.9508 219° Southwest 428 493 28,000  Level Houston Center
Fri 09:07:28 PM 31.5981 -93.0400 219° Southwest 430 495 28,000  Level Houston Center
Fri 09:08:29 PM 31.4878 -93.1469 220° Southwest 431 496 28,000  Level Houston Center
Fri 09:09:31 PM 31.3950 -93.2347 219° Southwest 430 495 28,000  Level Houston Center
Fri 09:10:32 PM 31.3106 -93.3161 219° Southwest 427 491 28,000  Level Houston Center
Fri 09:11:34 PM 31.2100 -93.4114 219° Southwest 434 499 28,000  Level Houston Center
Fri 09:12:35 PM 31.1161 -93.5000 219° Southwest 436 502 28,000  Level Houston Center
Fri 09:13:37 PM 31.0233 -93.5886 219° Southwest 432 497 28,000  Level Houston Center
Fri 09:14:38 PM 30.9303 -93.6767 219° Southwest 434 499 28,000 -244 Level Houston Center
Fri 09:15:40 PM 30.8367 -93.7650 219° Southwest 436 502 27,500 -1,561 Descending Houston Center
Fri 09:16:41 PM 30.7225 -93.8728 219° Southwest 443 510 24,800 -2,607 Descending Houston Center
Fri 09:17:42 PM 30.6297 -93.9594 219° Southwest 436 502 22,200 -2,537 Descending Houston Center
Fri 09:18:44 PM 30.5419 -94.0417 219° Southwest 416 479 19,600 -2,439 Descending Houston Center
Fri 09:19:45 PM 30.4564 -94.1228 219° Southwest 402 463 17,200 -2,538 Descending Houston Center
Fri 09:20:28 PM 30.3886 -94.1867 219° Southwest 383 441 15,200 -2,419 Descending Houston Center
Fri 09:20:47 PM 30.3736 -94.1986 214° Southwest 387 445 14,700 -2,757 Descending Houston Center
Fri 09:21:05 PM 30.3347 -94.2350 219° Southwest 375 432 13,500 -2,262 Descending Houston Center
Fri 09:21:48 PM 30.2944 -94.2739 220° Southwest 374 430 12,400 -1,377 Descending Houston Center
Fri 09:22:06 PM 30.2536 -94.3089 217° Southwest 363 418 12,100 -387 Descending Houston Center
Fri 09:22:50 PM 30.2053 -94.3625 224° Southwest 354 407 12,000 -98 Descending Houston Center
Fri 09:23:07 PM 30.1928 -94.3942 245° Southwest 352 405 12,000 -769 Level Houston Center
Fri 09:24:08 PM 30.1722 -94.5058 258° West 353 406 11,000 -1,029 Descending Houston Center
Fri 09:24:52 PM 30.1597 -94.5856 260° West 349 402 10,200 -885 Descending Houston Center
Fri 09:25:09 PM 30.1536 -94.6169 257° West 342 394 10,100 -194 Descending Houston Center
Fri 09:25:54 PM 30.1408 -94.6917 259° West 340 391 10,000 -98 Descending Houston Center
Fri 09:26:10 PM 30.1344 -94.7233 257° West 337 388 10,000  Level Houston Center
Fri 09:26:55 PM 30.1236 -94.7967 260° West 337 388 10,000  Level Houston Center
Fri 09:27:10 PM 30.1189 -94.8219 258° West 292 336 10,000 -492 Level Houston Center
Fri 09:27:56 PM 30.1086 -94.8808 259° West 273 314 9,500 -787 Descending Houston Center
Fri 09:28:11 PM 30.1039 -94.9083 259° West 263 303 9,200 -968 Descending Houston Center
Fri 09:28:58 PM 30.1056 -94.9656 272° West 266 306 8,500 -944 Descending Houston Center
Fri 09:29:59 PM 30.1056 -95.0514 270° West 268 308 7,500 -984 Descending Houston Center
Fri 09:31:00 PM 30.1067 -95.1367 271° West 268 308 6,500 -662 Descending Houston Center
Fri 09:32:15 PM 30.1067 -95.2536 270° West 263 303 6,000 -244 Descending Houston Center
Fri 09:33:03 PM 30.1064 -95.3233 270° West 265 305 6,000  Level Houston Center
Fri 09:34:04 PM 30.1067 -95.4086 270° West 267 307 6,000 -295 Level Houston Center
Fri 09:35:05 PM 30.1064 -95.4833 270° West 237 273 5,400 -1,033 Descending Houston Center
Fri 09:36:06 PM 30.1067 -95.5547 270° West 225 259 3,900 -1,171 Descending Houston Center
Fri 09:37:08 PM 30.0575 -95.5789 203° Southwest 217 250 3,000 -439 Descending Houston Center
Fri 09:38:09 PM 30.0019 -95.5761 178° South 221 254 3,000 -148 Level Houston Center
Fri 09:39:10 PM 29.9936 -95.5086 98° East 221 254 2,700 -295 Descending Houston Center

Login

Don't have an account? Register now (free) for customized features, flight alerts, and more!